Hollis, Illinois
Current Conditions -  °F | °C
As of 5:54 PM on Monday 20 Oct 2014 (Local Time) from KPIA Reporting Station
Few Clouds Few Clouds  
Wind Chill: 65°   Ceiling: Unl
Heat Index: 65°   Visibility: 10mi
Dew Point: 43°   Wind: 6mph
Humidity: 45%   Direction: 320°NW
Pressure: 29.95"   Gusts: NA
Location:  40.6465°N, 89.6859°W
Report Text: KPIA 202254Z 32005KT 10SM FEW055 18/06 A2995 RMK AO2 SLP141 T01830061
Loading
Personal Weather Stations






























Interactive Weather Map
Tropical Storm Tracking
New forecast layout! Learn more

10-Day Weather Forecast

Advertisements
Track Severe Weather on mobile